< Cyclone 200206 2002 Season Cyclone 200208 >
Cyclone 200207 (DIANNE)
General InformationTrack Information on Google MapsDetailed Wind InformationList of All Images || ResourceGoogle EarthGE AnimationAtom FeedGeoJSON
Detalied Best Track (Time Zone = UTC)
Year Month Day Hour Lat. Long. Pressure (hPa) Wind (kt) Class Image Chart
2002 4 6 00 -10.3 101.5 1004 21 2 Image --
2002 4 6 06 -10.9 101.0 1002 23 2 Image --
2002 4 6 12 -11.7 100.4 1000 27 2 Image --
2002 4 6 18 -12.0 99.2 997 31 2 Image --
2002 4 6 21 -12.1 98.5 995 35 3 Image --
2002 4 7 00 -12.1 98.0 992 39 3 Image --
2002 4 7 03 -12.2 97.3 988 45 3 Image --
2002 4 7 06 -12.4 96.8 986 47 3 Image --
2002 4 7 09 -12.6 96.4 984 49 4 Image --
2002 4 7 12 -13.2 96.0 980 54 4 Image --
2002 4 7 15 -13.7 95.1 975 60 4 Image --
2002 4 7 18 -13.9 94.3 975 60 4 Image --
2002 4 7 21 -14.2 93.6 975 60 4 Image --
2002 4 8 00 -14.4 93.0 970 64 5 Image --
2002 4 8 03 -14.6 92.3 970 64 5 Image --
2002 4 8 06 -14.9 91.8 970 64 5 Image --
2002 4 8 09 -15.2 91.1 965 70 5 Image --
2002 4 8 12 -15.4 90.6 960 76 5 Image --
2002 4 8 15 -15.5 90.2 955 80 5 Image --
2002 4 8 18 -15.7 89.9 950 84 5 Image --
2002 4 8 21 -16.1 89.6 945 89 5 Image --
2002 4 9 00 -16.5 89.3 945 89 5 Image --
2002 4 9 03 -16.9 89.1 945 89 5 Image --
2002 4 9 06 -17.2 88.5 945 89 5 Image --
2002 4 9 09 -17.5 88.3 950 84 5 Image --
2002 4 9 12 -17.6 88.1 950 84 5 Image --
2002 4 9 15 -17.9 88.0 950 84 5 Image --
2002 4 9 18 -18.2 87.9 950 84 5 Image --
2002 4 9 21 -18.4 87.9 950 84 5 Image --
2002 4 10 00 -18.8 87.9 955 80 5 Image --
2002 4 10 03 -19.1 88.0 955 80 5 Image --
2002 4 10 06 -19.6 88.0 960 76 5 Image --
2002 4 10 09 -19.7 88.2 965 70 5 Image --
2002 4 10 12 -19.9 88.3 970 64 5 Image --
2002 4 10 18 -20.4 88.5 980 54 4 Image --
2002 4 11 00 -20.9 88.7 985 49 4 Image --
2002 4 11 06 -22.1 89.1 990 41 3 Image --
2002 4 11 12 -23.1 89.4 995 35 3 Image --
2002 4 11 15 -23.6 89.6 997 31 2 Image --
2002 4 11 18 -23.9 89.7 1000 27 2 Image --
< Cyclone 200206 2002 Season Cyclone 200208 >

Help